sensor_id;sensor_type;location;lat;lon;timestamp;P1;durP1;ratioP1;P2;durP2;ratioP2
18752;SDS011;9505;50.882;5.350;2023-07-09T00:01:49;26.70;;;8.23;;
18752;SDS011;9505;50.882;5.350;2023-07-09T00:04:16;15.85;;;6.97;;
18752;SDS011;9505;50.882;5.350;2023-07-09T00:06:43;24.30;;;7.53;;
18752;SDS011;9505;50.882;5.350;2023-07-09T00:09:12;19.30;;;6.75;;
18752;SDS011;9505;50.882;5.350;2023-07-09T00:11:43;19.65;;;7.03;;
18752;SDS011;9505;50.882;5.350;2023-07-09T00:14:10;15.20;;;6.70;;
18752;SDS011;9505;50.882;5.350;2023-07-09T00:16:37;22.35;;;8.05;;
18752;SDS011;9505;50.882;5.350;2023-07-09T00:19:04;17.48;;;7.57;;
18752;SDS011;9505;50.882;5.350;2023-07-09T00:21:36;20.65;;;8.25;;
18752;SDS011;9505;50.882;5.350;2023-07-09T00:24:02;20.40;;;8.50;;
18752;SDS011;9505;50.882;5.350;2023-07-09T00:26:30;22.42;;;8.48;;
18752;SDS011;9505;50.882;5.350;2023-07-09T00:28:57;19.58;;;7.75;;
18752;SDS011;9505;50.882;5.350;2023-07-09T00:31:23;17.55;;;8.20;;
18752;SDS011;9505;50.882;5.350;2023-07-09T00:33:49;17.42;;;7.30;;
18752;SDS011;9505;50.882;5.350;2023-07-09T00:36:20;20.35;;;7.15;;
18752;SDS011;9505;50.882;5.350;2023-07-09T00:38:53;17.92;;;6.65;;
18752;SDS011;9505;50.882;5.350;2023-07-09T00:41:19;18.75;;;7.07;;
18752;SDS011;9505;50.882;5.350;2023-07-09T00:43:47;20.80;;;7.68;;
18752;SDS011;9505;50.882;5.350;2023-07-09T00:48:53;17.15;;;6.60;;
18752;SDS011;9505;50.882;5.350;2023-07-09T00:51:24;18.25;;;6.97;;
18752;SDS011;9505;50.882;5.350;2023-07-09T00:53:52;19.50;;;6.95;;
18752;SDS011;9505;50.882;5.350;2023-07-09T00:56:39;21.95;;;6.80;;
18752;SDS011;9505;50.882;5.350;2023-07-09T00:59:10;21.70;;;7.50;;
18752;SDS011;9505;50.882;5.350;2023-07-09T01:01:39;22.73;;;8.30;;
18752;SDS011;9505;50.882;5.350;2023-07-09T01:04:08;14.02;;;6.28;;
18752;SDS011;9505;50.882;5.350;2023-07-09T01:06:36;17.90;;;7.00;;
18752;SDS011;9505;50.882;5.350;2023-07-09T01:09:06;17.25;;;6.47;;
18752;SDS011;9505;50.882;5.350;2023-07-09T01:11:32;21.38;;;6.85;;
18752;SDS011;9505;50.882;5.350;2023-07-09T01:13:59;21.75;;;7.45;;
18752;SDS011;9505;50.882;5.350;2023-07-09T01:16:27;20.00;;;6.57;;
18752;SDS011;9505;50.882;5.350;2023-07-09T01:18:57;19.67;;;7.25;;
18752;SDS011;9505;50.882;5.350;2023-07-09T01:21:23;21.60;;;7.75;;
18752;SDS011;9505;50.882;5.350;2023-07-09T01:23:49;20.55;;;7.82;;
18752;SDS011;9505;50.882;5.350;2023-07-09T01:26:20;18.15;;;7.05;;
18752;SDS011;9505;50.882;5.350;2023-07-09T01:28:49;18.70;;;7.22;;
18752;SDS011;9505;50.882;5.350;2023-07-09T01:31:16;26.65;;;7.68;;
18752;SDS011;9505;50.882;5.350;2023-07-09T01:33:42;16.83;;;7.25;;
18752;SDS011;9505;50.882;5.350;2023-07-09T01:36:10;17.20;;;7.07;;
18752;SDS011;9505;50.882;5.350;2023-07-09T01:38:38;24.83;;;7.78;;
18752;SDS011;9505;50.882;5.350;2023-07-09T01:41:05;26.20;;;8.25;;
18752;SDS011;9505;50.882;5.350;2023-07-09T01:43:32;16.83;;;7.28;;
18752;SDS011;9505;50.882;5.350;2023-07-09T01:45:59;15.45;;;6.88;;
18752;SDS011;9505;50.882;5.350;2023-07-09T01:48:25;19.38;;;6.85;;
18752;SDS011;9505;50.882;5.350;2023-07-09T01:50:52;16.85;;;7.03;;
18752;SDS011;9505;50.882;5.350;2023-07-09T01:53:19;17.10;;;6.97;;
18752;SDS011;9505;50.882;5.350;2023-07-09T01:55:50;23.08;;;7.18;;
18752;SDS011;9505;50.882;5.350;2023-07-09T01:58:16;16.50;;;7.43;;
18752;SDS011;9505;50.882;5.350;2023-07-09T02:00:42;15.27;;;6.65;;
18752;SDS011;9505;50.882;5.350;2023-07-09T02:03:09;17.58;;;7.15;;
18752;SDS011;9505;50.882;5.350;2023-07-09T02:05:36;18.45;;;6.82;;
18752;SDS011;9505;50.882;5.350;2023-07-09T02:08:02;21.30;;;8.15;;
18752;SDS011;9505;50.882;5.350;2023-07-09T02:10:28;17.95;;;7.53;;
18752;SDS011;9505;50.882;5.350;2023-07-09T02:12:54;22.48;;;8.85;;
18752;SDS011;9505;50.882;5.350;2023-07-09T02:15:20;24.83;;;7.32;;
18752;SDS011;9505;50.882;5.350;2023-07-09T02:17:45;23.42;;;7.75;;
18752;SDS011;9505;50.882;5.350;2023-07-09T02:20:11;19.13;;;8.05;;
18752;SDS011;9505;50.882;5.350;2023-07-09T02:22:38;17.17;;;7.25;;
18752;SDS011;9505;50.882;5.350;2023-07-09T02:25:04;14.07;;;6.75;;
18752;SDS011;9505;50.882;5.350;2023-07-09T02:27:30;23.38;;;7.40;;
18752;SDS011;9505;50.882;5.350;2023-07-09T02:29:57;27.20;;;8.48;;
18752;SDS011;9505;50.882;5.350;2023-07-09T02:32:23;22.80;;;7.55;;
18752;SDS011;9505;50.882;5.350;2023-07-09T02:34:53;19.55;;;7.18;;
18752;SDS011;9505;50.882;5.350;2023-07-09T02:37:21;20.88;;;8.50;;
18752;SDS011;9505;50.882;5.350;2023-07-09T02:39:51;20.60;;;7.80;;
18752;SDS011;9505;50.882;5.350;2023-07-09T02:42:17;15.55;;;6.40;;
18752;SDS011;9505;50.882;5.350;2023-07-09T02:44:45;23.15;;;7.07;;
18752;SDS011;9505;50.882;5.350;2023-07-09T02:47:11;18.55;;;7.03;;
18752;SDS011;9505;50.882;5.350;2023-07-09T02:49:37;20.08;;;7.03;;
18752;SDS011;9505;50.882;5.350;2023-07-09T02:52:03;14.32;;;7.15;;
18752;SDS011;9505;50.882;5.350;2023-07-09T02:54:30;26.25;;;7.57;;
18752;SDS011;9505;50.882;5.350;2023-07-09T02:56:56;18.35;;;7.80;;
18752;SDS011;9505;50.882;5.350;2023-07-09T02:59:21;19.95;;;7.47;;
18752;SDS011;9505;50.882;5.350;2023-07-09T03:01:47;22.75;;;6.85;;
18752;SDS011;9505;50.882;5.350;2023-07-09T03:04:14;18.98;;;7.50;;
18752;SDS011;9505;50.882;5.350;2023-07-09T03:06:40;21.05;;;7.13;;
18752;SDS011;9505;50.882;5.350;2023-07-09T03:09:06;22.00;;;8.45;;
18752;SDS011;9505;50.882;5.350;2023-07-09T03:11:32;21.50;;;8.25;;
18752;SDS011;9505;50.882;5.350;2023-07-09T03:14:00;22.42;;;8.43;;
18752;SDS011;9505;50.882;5.350;2023-07-09T03:16:29;22.52;;;8.82;;
18752;SDS011;9505;50.882;5.350;2023-07-09T03:18:57;23.13;;;8.95;;
18752;SDS011;9505;50.882;5.350;2023-07-09T03:21:23;23.67;;;7.88;;
18752;SDS011;9505;50.882;5.350;2023-07-09T03:23:51;26.00;;;9.05;;
18752;SDS011;9505;50.882;5.350;2023-07-09T03:26:17;20.27;;;8.43;;
18752;SDS011;9505;50.882;5.350;2023-07-09T03:28:43;19.25;;;8.20;;
18752;SDS011;9505;50.882;5.350;2023-07-09T03:31:09;19.48;;;8.13;;
18752;SDS011;9505;50.882;5.350;2023-07-09T03:33:34;23.38;;;8.25;;
18752;SDS011;9505;50.882;5.350;2023-07-09T03:36:00;28.42;;;9.23;;
18752;SDS011;9505;50.882;5.350;2023-07-09T03:38:26;22.05;;;9.05;;
18752;SDS011;9505;50.882;5.350;2023-07-09T03:40:52;23.60;;;8.57;;
18752;SDS011;9505;50.882;5.350;2023-07-09T03:43:19;27.60;;;9.00;;
18752;SDS011;9505;50.882;5.350;2023-07-09T03:45:45;19.92;;;8.00;;
18752;SDS011;9505;50.882;5.350;2023-07-09T03:48:11;16.27;;;7.78;;
18752;SDS011;9505;50.882;5.350;2023-07-09T03:50:37;18.38;;;7.45;;
18752;SDS011;9505;50.882;5.350;2023-07-09T03:53:03;24.38;;;8.73;;
18752;SDS011;9505;50.882;5.350;2023-07-09T03:55:30;27.30;;;8.05;;
18752;SDS011;9505;50.882;5.350;2023-07-09T03:57:56;19.70;;;8.15;;
18752;SDS011;9505;50.882;5.350;2023-07-09T04:00:22;17.90;;;8.65;;
18752;SDS011;9505;50.882;5.350;2023-07-09T04:02:49;23.48;;;8.00;;
18752;SDS011;9505;50.882;5.350;2023-07-09T04:05:15;14.68;;;7.55;;
18752;SDS011;9505;50.882;5.350;2023-07-09T04:07:42;16.55;;;8.40;;
18752;SDS011;9505;50.882;5.350;2023-07-09T04:10:08;25.73;;;9.20;;
18752;SDS011;9505;50.882;5.350;2023-07-09T04:12:34;16.15;;;8.32;;
18752;SDS011;9505;50.882;5.350;2023-07-09T04:15:01;18.88;;;8.57;;
18752;SDS011;9505;50.882;5.350;2023-07-09T04:17:28;22.40;;;8.02;;
18752;SDS011;9505;50.882;5.350;2023-07-09T04:19:53;30.13;;;8.38;;
18752;SDS011;9505;50.882;5.350;2023-07-09T04:22:19;14.05;;;6.88;;
18752;SDS011;9505;50.882;5.350;2023-07-09T04:24:44;15.18;;;7.25;;
18752;SDS011;9505;50.882;5.350;2023-07-09T04:27:11;21.30;;;6.88;;
18752;SDS011;9505;50.882;5.350;2023-07-09T04:29:38;17.08;;;7.53;;
18752;SDS011;9505;50.882;5.350;2023-07-09T04:32:05;21.92;;;8.13;;
18752;SDS011;9505;50.882;5.350;2023-07-09T04:34:32;17.48;;;7.85;;
18752;SDS011;9505;50.882;5.350;2023-07-09T04:36:57;23.27;;;7.50;;
18752;SDS011;9505;50.882;5.350;2023-07-09T04:39:23;14.68;;;7.20;;
18752;SDS011;9505;50.882;5.350;2023-07-09T04:41:49;16.35;;;7.53;;
18752;SDS011;9505;50.882;5.350;2023-07-09T04:44:15;19.33;;;6.85;;
18752;SDS011;9505;50.882;5.350;2023-07-09T04:46:40;15.52;;;7.22;;
18752;SDS011;9505;50.882;5.350;2023-07-09T04:49:06;16.48;;;7.05;;
18752;SDS011;9505;50.882;5.350;2023-07-09T04:51:32;16.65;;;6.65;;
18752;SDS011;9505;50.882;5.350;2023-07-09T04:53:58;22.30;;;7.85;;
18752;SDS011;9505;50.882;5.350;2023-07-09T04:56:28;19.90;;;7.25;;
18752;SDS011;9505;50.882;5.350;2023-07-09T04:58:55;15.10;;;6.88;;
18752;SDS011;9505;50.882;5.350;2023-07-09T05:01:21;18.27;;;6.95;;
18752;SDS011;9505;50.882;5.350;2023-07-09T05:03:47;25.10;;;7.68;;
18752;SDS011;9505;50.882;5.350;2023-07-09T05:06:13;14.90;;;6.68;;
18752;SDS011;9505;50.882;5.350;2023-07-09T05:08:39;17.75;;;7.03;;
18752;SDS011;9505;50.882;5.350;2023-07-09T05:11:06;21.65;;;6.97;;
18752;SDS011;9505;50.882;5.350;2023-07-09T05:13:31;18.85;;;6.20;;
18752;SDS011;9505;50.882;5.350;2023-07-09T05:15:57;18.48;;;6.03;;
18752;SDS011;9505;50.882;5.350;2023-07-09T05:18:22;19.23;;;6.65;;
18752;SDS011;9505;50.882;5.350;2023-07-09T05:20:49;18.73;;;5.63;;
18752;SDS011;9505;50.882;5.350;2023-07-09T05:23:14;17.42;;;6.05;;
18752;SDS011;9505;50.882;5.350;2023-07-09T05:25:40;14.82;;;5.72;;
18752;SDS011;9505;50.882;5.350;2023-07-09T05:28:06;17.58;;;6.45;;
18752;SDS011;9505;50.882;5.350;2023-07-09T05:30:32;11.43;;;5.00;;
18752;SDS011;9505;50.882;5.350;2023-07-09T05:32:58;20.85;;;6.90;;
18752;SDS011;9505;50.882;5.350;2023-07-09T05:35:24;14.80;;;5.72;;
18752;SDS011;9505;50.882;5.350;2023-07-09T05:37:51;16.83;;;6.22;;
18752;SDS011;9505;50.882;5.350;2023-07-09T05:40:20;13.10;;;6.07;;
18752;SDS011;9505;50.882;5.350;2023-07-09T05:42:47;18.42;;;6.00;;
18752;SDS011;9505;50.882;5.350;2023-07-09T05:45:14;20.02;;;5.65;;
18752;SDS011;9505;50.882;5.350;2023-07-09T05:47:40;33.22;;;7.30;;
18752;SDS011;9505;50.882;5.350;2023-07-09T05:50:06;29.60;;;6.80;;
18752;SDS011;9505;50.882;5.350;2023-07-09T05:52:32;13.48;;;5.32;;
18752;SDS011;9505;50.882;5.350;2023-07-09T05:54:58;15.18;;;4.97;;
18752;SDS011;9505;50.882;5.350;2023-07-09T05:57:24;23.40;;;6.18;;
18752;SDS011;9505;50.882;5.350;2023-07-09T05:59:50;17.13;;;5.40;;
18752;SDS011;9505;50.882;5.350;2023-07-09T06:02:17;24.95;;;6.07;;
18752;SDS011;9505;50.882;5.350;2023-07-09T06:04:45;25.45;;;6.10;;
18752;SDS011;9505;50.882;5.350;2023-07-09T06:07:11;14.52;;;5.38;;
18752;SDS011;9505;50.882;5.350;2023-07-09T06:09:38;15.35;;;5.68;;
18752;SDS011;9505;50.882;5.350;2023-07-09T06:12:04;30.13;;;6.82;;
18752;SDS011;9505;50.882;5.350;2023-07-09T06:14:30;18.50;;;5.78;;
18752;SDS011;9505;50.882;5.350;2023-07-09T06:16:57;13.23;;;4.85;;
18752;SDS011;9505;50.882;5.350;2023-07-09T06:19:23;13.43;;;4.70;;
18752;SDS011;9505;50.882;5.350;2023-07-09T06:21:49;13.85;;;4.93;;
18752;SDS011;9505;50.882;5.350;2023-07-09T06:24:15;13.30;;;5.80;;
18752;SDS011;9505;50.882;5.350;2023-07-09T06:26:40;18.90;;;5.25;;
18752;SDS011;9505;50.882;5.350;2023-07-09T06:29:06;22.42;;;5.57;;
18752;SDS011;9505;50.882;5.350;2023-07-09T06:31:31;14.85;;;5.32;;
18752;SDS011;9505;50.882;5.350;2023-07-09T06:33:57;14.60;;;5.20;;
18752;SDS011;9505;50.882;5.350;2023-07-09T06:36:23;14.93;;;4.93;;
18752;SDS011;9505;50.882;5.350;2023-07-09T06:38:48;10.50;;;4.80;;
18752;SDS011;9505;50.882;5.350;2023-07-09T06:41:14;15.55;;;5.22;;
18752;SDS011;9505;50.882;5.350;2023-07-09T06:43:40;10.30;;;4.63;;
18752;SDS011;9505;50.882;5.350;2023-07-09T06:46:07;8.95;;;4.65;;
18752;SDS011;9505;50.882;5.350;2023-07-09T06:48:36;13.73;;;4.53;;
18752;SDS011;9505;50.882;5.350;2023-07-09T06:51:02;10.90;;;4.47;;
18752;SDS011;9505;50.882;5.350;2023-07-09T06:53:28;13.30;;;4.82;;
18752;SDS011;9505;50.882;5.350;2023-07-09T06:55:54;20.88;;;5.90;;
18752;SDS011;9505;50.882;5.350;2023-07-09T06:58:23;13.73;;;4.68;;
18752;SDS011;9505;50.882;5.350;2023-07-09T07:00:52;11.07;;;4.32;;
18752;SDS011;9505;50.882;5.350;2023-07-09T07:03:18;15.10;;;5.05;;
18752;SDS011;9505;50.882;5.350;2023-07-09T07:05:47;15.50;;;4.80;;
18752;SDS011;9505;50.882;5.350;2023-07-09T07:08:15;12.95;;;4.90;;
18752;SDS011;9505;50.882;5.350;2023-07-09T07:10:42;9.43;;;4.30;;
18752;SDS011;9505;50.882;5.350;2023-07-09T07:13:09;15.95;;;5.18;;
18752;SDS011;9505;50.882;5.350;2023-07-09T07:15:36;15.38;;;5.22;;
18752;SDS011;9505;50.882;5.350;2023-07-09T07:18:02;13.88;;;4.50;;
18752;SDS011;9505;50.882;5.350;2023-07-09T07:20:29;9.32;;;4.25;;
18752;SDS011;9505;50.882;5.350;2023-07-09T07:22:55;15.38;;;4.82;;
18752;SDS011;9505;50.882;5.350;2023-07-09T07:25:21;11.48;;;4.50;;
18752;SDS011;9505;50.882;5.350;2023-07-09T07:27:47;10.50;;;3.97;;
18752;SDS011;9505;50.882;5.350;2023-07-09T07:30:13;10.23;;;4.22;;
18752;SDS011;9505;50.882;5.350;2023-07-09T07:32:42;15.45;;;4.85;;
18752;SDS011;9505;50.882;5.350;2023-07-09T07:35:09;17.95;;;5.40;;
18752;SDS011;9505;50.882;5.350;2023-07-09T07:37:35;40.28;;;7.65;;
18752;SDS011;9505;50.882;5.350;2023-07-09T07:40:00;32.58;;;7.15;;
18752;SDS011;9505;50.882;5.350;2023-07-09T07:42:27;14.90;;;4.82;;
18752;SDS011;9505;50.882;5.350;2023-07-09T07:44:53;24.80;;;5.70;;
18752;SDS011;9505;50.882;5.350;2023-07-09T07:47:18;41.90;;;7.95;;
18752;SDS011;9505;50.882;5.350;2023-07-09T07:49:44;42.90;;;8.10;;
18752;SDS011;9505;50.882;5.350;2023-07-09T07:52:10;22.00;;;5.28;;
18752;SDS011;9505;50.882;5.350;2023-07-09T07:54:35;35.28;;;7.30;;
18752;SDS011;9505;50.882;5.350;2023-07-09T07:57:02;33.03;;;6.68;;
18752;SDS011;9505;50.882;5.350;2023-07-09T07:59:28;17.95;;;5.47;;
18752;SDS011;9505;50.882;5.350;2023-07-09T08:01:54;23.08;;;5.43;;
18752;SDS011;9505;50.882;5.350;2023-07-09T08:04:19;41.92;;;8.02;;
18752;SDS011;9505;50.882;5.350;2023-07-09T08:06:45;34.22;;;6.80;;
18752;SDS011;9505;50.882;5.350;2023-07-09T08:09:11;18.83;;;5.05;;
18752;SDS011;9505;50.882;5.350;2023-07-09T08:11:36;36.00;;;6.82;;
18752;SDS011;9505;50.882;5.350;2023-07-09T08:14:02;45.83;;;8.00;;
18752;SDS011;9505;50.882;5.350;2023-07-09T08:16:28;24.88;;;5.40;;
18752;SDS011;9505;50.882;5.350;2023-07-09T08:18:54;24.02;;;5.78;;
18752;SDS011;9505;50.882;5.350;2023-07-09T08:21:19;32.67;;;6.68;;
18752;SDS011;9505;50.882;5.350;2023-07-09T08:23:45;24.05;;;5.40;;
18752;SDS011;9505;50.882;5.350;2023-07-09T08:26:11;15.68;;;4.32;;
18752;SDS011;9505;50.882;5.350;2023-07-09T08:28:36;32.15;;;6.28;;
18752;SDS011;9505;50.882;5.350;2023-07-09T08:31:02;37.38;;;7.22;;
18752;SDS011;9505;50.882;5.350;2023-07-09T08:33:29;15.52;;;4.65;;
18752;SDS011;9505;50.882;5.350;2023-07-09T08:35:55;19.80;;;5.25;;
18752;SDS011;9505;50.882;5.350;2023-07-09T08:38:21;45.53;;;7.65;;
18752;SDS011;9505;50.882;5.350;2023-07-09T08:41:00;34.03;;;6.72;;
18752;SDS011;9505;50.882;5.350;2023-07-09T08:43:31;58.25;;;9.40;;
18752;SDS011;9505;50.882;5.350;2023-07-09T08:48:40;67.07;;;10.23;;
18752;SDS011;9505;50.882;5.350;2023-07-09T08:51:15;72.57;;;11.27;;
18752;SDS011;9505;50.882;5.350;2023-07-09T08:53:56;60.42;;;8.98;;
18752;SDS011;9505;50.882;5.350;2023-07-09T08:56:24;56.35;;;9.48;;
18752;SDS011;9505;50.882;5.350;2023-07-09T08:58:51;58.45;;;9.65;;
18752;SDS011;9505;50.882;5.350;2023-07-09T09:01:24;69.38;;;10.95;;
18752;SDS011;9505;50.882;5.350;2023-07-09T09:04:00;55.22;;;8.85;;
18752;SDS011;9505;50.882;5.350;2023-07-09T09:06:38;77.63;;;11.45;;
18752;SDS011;9505;50.882;5.350;2023-07-09T09:09:21;56.45;;;9.13;;
18752;SDS011;9505;50.882;5.350;2023-07-09T09:14:45;41.53;;;7.75;;
18752;SDS011;9505;50.882;5.350;2023-07-09T09:17:23;58.00;;;9.05;;
18752;SDS011;9505;50.882;5.350;2023-07-09T09:19:55;56.70;;;9.05;;
18752;SDS011;9505;50.882;5.350;2023-07-09T09:22:26;55.33;;;9.00;;
18752;SDS011;9505;50.882;5.350;2023-07-09T09:27:29;29.13;;;6.57;;
18752;SDS011;9505;50.882;5.350;2023-07-09T09:29:54;81.93;;;12.38;;
18752;SDS011;9505;50.882;5.350;2023-07-09T09:32:22;51.78;;;8.90;;
18752;SDS011;9505;50.882;5.350;2023-07-09T09:34:52;36.92;;;7.45;;
18752;SDS011;9505;50.882;5.350;2023-07-09T09:37:31;29.88;;;6.72;;
18752;SDS011;9505;50.882;5.350;2023-07-09T09:39:58;34.95;;;6.72;;
18752;SDS011;9505;50.882;5.350;2023-07-09T09:42:25;33.03;;;6.95;;
18752;SDS011;9505;50.882;5.350;2023-07-09T09:44:52;19.17;;;5.65;;
18752;SDS011;9505;50.882;5.350;2023-07-09T09:47:19;26.20;;;6.22;;
18752;SDS011;9505;50.882;5.350;2023-07-09T09:49:45;48.45;;;8.65;;
18752;SDS011;9505;50.882;5.350;2023-07-09T09:52:16;66.85;;;10.85;;
18752;SDS011;9505;50.882;5.350;2023-07-09T09:54:51;61.72;;;9.20;;
18752;SDS011;9505;50.882;5.350;2023-07-09T09:57:21;50.28;;;8.60;;
18752;SDS011;9505;50.882;5.350;2023-07-09T09:59:48;43.92;;;7.90;;
18752;SDS011;9505;50.882;5.350;2023-07-09T10:02:18;24.77;;;5.50;;
18752;SDS011;9505;50.882;5.350;2023-07-09T10:04:46;28.08;;;6.10;;
18752;SDS011;9505;50.882;5.350;2023-07-09T10:07:18;29.38;;;5.70;;
18752;SDS011;9505;50.882;5.350;2023-07-09T10:09:55;44.17;;;8.07;;
18752;SDS011;9505;50.882;5.350;2023-07-09T10:12:31;23.77;;;5.25;;
18752;SDS011;9505;50.882;5.350;2023-07-09T10:17:57;51.28;;;8.50;;
18752;SDS011;9505;50.882;5.350;2023-07-09T10:20:36;33.15;;;6.68;;
18752;SDS011;9505;50.882;5.350;2023-07-09T10:26:15;47.83;;;8.38;;
18752;SDS011;9505;50.882;5.350;2023-07-09T10:40:08;63.17;;;10.07;;
18752;SDS011;9505;50.882;5.350;2023-07-09T10:42:44;53.03;;;8.95;;
18752;SDS011;9505;50.882;5.350;2023-07-09T10:45:14;51.08;;;9.05;;
18752;SDS011;9505;50.882;5.350;2023-07-09T10:47:48;43.70;;;7.55;;
18752;SDS011;9505;50.882;5.350;2023-07-09T10:50:24;37.63;;;7.55;;
18752;SDS011;9505;50.882;5.350;2023-07-09T10:52:57;25.58;;;6.13;;
18752;SDS011;9505;50.882;5.350;2023-07-09T10:55:33;34.80;;;6.97;;
18752;SDS011;9505;50.882;5.350;2023-07-09T11:00:53;59.85;;;9.85;;
18752;SDS011;9505;50.882;5.350;2023-07-09T11:03:21;56.90;;;9.15;;
18752;SDS011;9505;50.882;5.350;2023-07-09T11:06:04;52.80;;;9.05;;
18752;SDS011;9505;50.882;5.350;2023-07-09T11:08:55;60.00;;;9.70;;
18752;SDS011;9505;50.882;5.350;2023-07-09T11:11:31;34.30;;;6.57;;
18752;SDS011;9505;50.882;5.350;2023-07-09T11:14:23;52.75;;;9.45;;
18752;SDS011;9505;50.882;5.350;2023-07-09T11:16:52;22.75;;;5.32;;
18752;SDS011;9505;50.882;5.350;2023-07-09T11:19:20;42.08;;;7.40;;
18752;SDS011;9505;50.882;5.350;2023-07-09T11:24:46;25.80;;;6.18;;
18752;SDS011;9505;50.882;5.350;2023-07-09T11:27:19;39.53;;;7.88;;
18752;SDS011;9505;50.882;5.350;2023-07-09T11:29:56;52.53;;;8.82;;
18752;SDS011;9505;50.882;5.350;2023-07-09T11:32:22;45.70;;;8.23;;
18752;SDS011;9505;50.882;5.350;2023-07-09T11:34:48;23.23;;;5.45;;
18752;SDS011;9505;50.882;5.350;2023-07-09T11:37:14;36.95;;;7.15;;
18752;SDS011;9505;50.882;5.350;2023-07-09T11:44:50;66.22;;;9.65;;
18752;SDS011;9505;50.882;5.350;2023-07-09T11:47:22;73.93;;;10.63;;
18752;SDS011;9505;50.882;5.350;2023-07-09T11:49:54;47.28;;;8.93;;
18752;SDS011;9505;50.882;5.350;2023-07-09T11:52:33;43.47;;;7.88;;
18752;SDS011;9505;50.882;5.350;2023-07-09T11:55:19;42.60;;;7.50;;
18752;SDS011;9505;50.882;5.350;2023-07-09T11:58:12;50.03;;;8.52;;
18752;SDS011;9505;50.882;5.350;2023-07-09T12:00:41;79.00;;;11.85;;
18752;SDS011;9505;50.882;5.350;2023-07-09T12:03:20;73.28;;;10.65;;
18752;SDS011;9505;50.882;5.350;2023-07-09T12:06:00;36.78;;;6.55;;
18752;SDS011;9505;50.882;5.350;2023-07-09T12:08:35;20.23;;;6.00;;
18752;SDS011;9505;50.882;5.350;2023-07-09T12:11:03;31.30;;;7.82;;
18752;SDS011;9505;50.882;5.350;2023-07-09T12:13:36;45.72;;;9.23;;
18752;SDS011;9505;50.882;5.350;2023-07-09T12:16:18;28.42;;;8.32;;
18752;SDS011;9505;50.882;5.350;2023-07-09T12:18:53;57.33;;;10.88;;
18752;SDS011;9505;50.882;5.350;2023-07-09T12:21:19;61.75;;;12.48;;
18752;SDS011;9505;50.882;5.350;2023-07-09T12:23:45;36.85;;;9.77;;
18752;SDS011;9505;50.882;5.350;2023-07-09T12:26:12;67.68;;;12.95;;
18752;SDS011;9505;50.882;5.350;2023-07-09T12:28:40;52.10;;;11.60;;
18752;SDS011;9505;50.882;5.350;2023-07-09T12:31:10;64.35;;;12.93;;
18752;SDS011;9505;50.882;5.350;2023-07-09T12:33:46;62.38;;;13.80;;
18752;SDS011;9505;50.882;5.350;2023-07-09T12:36:16;71.88;;;14.73;;
18752;SDS011;9505;50.882;5.350;2023-07-09T12:38:43;67.03;;;14.52;;
18752;SDS011;9505;50.882;5.350;2023-07-09T12:41:17;58.25;;;12.30;;
18752;SDS011;9505;50.882;5.350;2023-07-09T12:44:03;23.35;;;9.55;;
18752;SDS011;9505;50.882;5.350;2023-07-09T12:46:29;42.85;;;11.38;;
18752;SDS011;9505;50.882;5.350;2023-07-09T12:48:56;80.20;;;16.65;;
18752;SDS011;9505;50.882;5.350;2023-07-09T12:51:24;70.93;;;15.15;;
18752;SDS011;9505;50.882;5.350;2023-07-09T12:56:42;35.30;;;10.63;;
18752;SDS011;9505;50.882;5.350;2023-07-09T12:59:19;64.28;;;13.82;;
18752;SDS011;9505;50.882;5.350;2023-07-09T13:01:48;27.85;;;9.10;;
18752;SDS011;9505;50.882;5.350;2023-07-09T13:04:15;59.55;;;12.25;;
18752;SDS011;9505;50.882;5.350;2023-07-09T13:06:41;61.63;;;11.77;;
18752;SDS011;9505;50.882;5.350;2023-07-09T13:09:17;67.78;;;11.65;;
18752;SDS011;9505;50.882;5.350;2023-07-09T13:11:46;79.68;;;12.85;;
18752;SDS011;9505;50.882;5.350;2023-07-09T13:14:19;44.53;;;9.85;;
18752;SDS011;9505;50.882;5.350;2023-07-09T13:16:50;52.95;;;10.05;;
18752;SDS011;9505;50.882;5.350;2023-07-09T13:19:19;41.30;;;9.15;;
18752;SDS011;9505;50.882;5.350;2023-07-09T13:21:45;31.08;;;7.78;;
18752;SDS011;9505;50.882;5.350;2023-07-09T13:24:22;20.77;;;6.78;;
18752;SDS011;9505;50.882;5.350;2023-07-09T13:26:50;25.55;;;7.25;;
18752;SDS011;9505;50.882;5.350;2023-07-09T13:29:16;20.20;;;6.30;;
18752;SDS011;9505;50.882;5.350;2023-07-09T13:31:44;23.40;;;7.10;;
18752;SDS011;9505;50.882;5.350;2023-07-09T13:34:16;20.45;;;6.68;;
18752;SDS011;9505;50.882;5.350;2023-07-09T13:36:48;16.10;;;6.47;;
18752;SDS011;9505;50.882;5.350;2023-07-09T13:39:14;33.50;;;7.50;;
18752;SDS011;9505;50.882;5.350;2023-07-09T13:41:42;50.17;;;8.82;;
18752;SDS011;9505;50.882;5.350;2023-07-09T13:44:12;27.70;;;6.60;;
18752;SDS011;9505;50.882;5.350;2023-07-09T13:46:43;23.13;;;5.97;;
18752;SDS011;9505;50.882;5.350;2023-07-09T13:49:10;22.42;;;6.00;;
18752;SDS011;9505;50.882;5.350;2023-07-09T13:51:39;29.83;;;6.00;;
18752;SDS011;9505;50.882;5.350;2023-07-09T13:54:13;27.38;;;6.40;;
18752;SDS011;9505;50.882;5.350;2023-07-09T13:56:42;24.90;;;5.68;;
18752;SDS011;9505;50.882;5.350;2023-07-09T13:59:12;25.85;;;5.38;;
18752;SDS011;9505;50.882;5.350;2023-07-09T14:01:43;26.65;;;5.75;;
18752;SDS011;9505;50.882;5.350;2023-07-09T14:04:11;38.22;;;6.15;;
18752;SDS011;9505;50.882;5.350;2023-07-09T14:06:38;26.48;;;5.47;;
18752;SDS011;9505;50.882;5.350;2023-07-09T14:09:03;19.80;;;4.70;;
18752;SDS011;9505;50.882;5.350;2023-07-09T14:11:29;19.33;;;4.90;;
18752;SDS011;9505;50.882;5.350;2023-07-09T14:13:55;16.75;;;4.45;;
18752;SDS011;9505;50.882;5.350;2023-07-09T14:16:20;21.77;;;5.25;;
18752;SDS011;9505;50.882;5.350;2023-07-09T14:18:46;20.13;;;4.53;;
18752;SDS011;9505;50.882;5.350;2023-07-09T14:21:13;26.52;;;5.22;;
18752;SDS011;9505;50.882;5.350;2023-07-09T14:23:51;16.63;;;4.32;;
18752;SDS011;9505;50.882;5.350;2023-07-09T14:26:17;14.30;;;3.92;;
18752;SDS011;9505;50.882;5.350;2023-07-09T14:28:43;23.88;;;4.50;;
18752;SDS011;9505;50.882;5.350;2023-07-09T14:34:16;20.92;;;5.00;;
18752;SDS011;9505;50.882;5.350;2023-07-09T14:36:42;14.30;;;3.95;;
18752;SDS011;9505;50.882;5.350;2023-07-09T14:39:11;19.48;;;3.97;;
18752;SDS011;9505;50.882;5.350;2023-07-09T14:41:37;38.72;;;6.32;;
18752;SDS011;9505;50.882;5.350;2023-07-09T14:44:05;14.50;;;3.90;;
18752;SDS011;9505;50.882;5.350;2023-07-09T14:46:52;55.72;;;7.68;;
18752;SDS011;9505;50.882;5.350;2023-07-09T14:49:19;53.80;;;7.60;;
18752;SDS011;9505;50.882;5.350;2023-07-09T14:51:45;21.85;;;4.45;;
18752;SDS011;9505;50.882;5.350;2023-07-09T14:56:52;28.70;;;5.18;;
18752;SDS011;9505;50.882;5.350;2023-07-09T14:59:19;61.08;;;8.43;;
18752;SDS011;9505;50.882;5.350;2023-07-09T15:01:45;71.25;;;9.13;;
18752;SDS011;9505;50.882;5.350;2023-07-09T15:04:22;27.95;;;5.13;;
18752;SDS011;9505;50.882;5.350;2023-07-09T15:06:52;69.43;;;9.13;;
18752;SDS011;9505;50.882;5.350;2023-07-09T15:09:24;49.72;;;7.10;;
18752;SDS011;9505;50.882;5.350;2023-07-09T15:11:52;44.90;;;6.72;;
18752;SDS011;9505;50.882;5.350;2023-07-09T15:14:24;38.30;;;6.00;;
18752;SDS011;9505;50.882;5.350;2023-07-09T15:16:51;38.17;;;6.18;;
18752;SDS011;9505;50.882;5.350;2023-07-09T15:19:19;20.95;;;4.05;;
18752;SDS011;9505;50.882;5.350;2023-07-09T15:21:49;24.45;;;4.75;;
18752;SDS011;9505;50.882;5.350;2023-07-09T15:26:44;59.33;;;8.60;;
18752;SDS011;9505;50.882;5.350;2023-07-09T15:29:13;56.35;;;8.02;;
18752;SDS011;9505;50.882;5.350;2023-07-09T15:31:40;48.40;;;7.80;;
18752;SDS011;9505;50.882;5.350;2023-07-09T15:34:06;32.42;;;5.53;;
18752;SDS011;9505;50.882;5.350;2023-07-09T15:36:32;51.78;;;7.70;;
18752;SDS011;9505;50.882;5.350;2023-07-09T15:38:57;52.88;;;7.50;;
18752;SDS011;9505;50.882;5.350;2023-07-09T15:41:23;30.42;;;5.43;;
18752;SDS011;9505;50.882;5.350;2023-07-09T15:43:49;13.45;;;3.85;;